Time;durP1;ratioP1;P1;durP2;ratioP2;P2;SDS_P1;SDS_P2;PMS_P1;PMS_P2;Temp;Humidity;BMP_temperature;BMP_pressure;BME280_temperature;BME280_humidity;BME280_pressure;Samples;Min_cycle;Max_cycle;Signal;HPM_P1;HPM_P2
2023/04/21 00:02:26;;;;;;;36.13;22.75;;;3.60;99.90;;;;;;6265247;28;20059;-78
2023/04/21 00:05:27;;;;;;;33.95;23.10;;;3.60;99.90;;;;;;6267157;28;20072;-78
2023/04/21 00:08:29;;;;;;;33.17;21.85;;;3.60;99.90;;;;;;6267220;28;20427;-78
2023/04/21 00:11:31;;;;;;;30.75;20.13;;;3.60;99.90;;;;;;6266551;28;20056;-78
2023/04/21 00:14:34;;;;;;;39.60;26.33;;;3.60;99.90;;;;;;6262124;28;20041;-78
2023/04/21 00:17:35;;;;;;;34.25;23.35;;;3.60;99.90;;;;;;6266301;28;20044;-78
2023/04/21 00:20:38;;;;;;;27.95;18.15;;;3.60;99.90;;;;;;6266108;28;20080;-78
2023/04/21 00:23:39;;;;;;;28.67;19.20;;;3.50;99.90;;;;;;6265771;28;20048;-78
2023/04/21 00:26:41;;;;;;;23.45;17.40;;;3.50;99.90;;;;;;6267448;28;20049;-78
2023/04/21 00:29:44;;;;;;;29.98;19.67;;;3.40;99.90;;;;;;6267841;28;20056;-78
2023/04/21 00:32:46;;;;;;;36.88;22.92;;;3.30;99.90;;;;;;6266274;28;20499;-79
2023/04/21 00:35:47;;;;;;;37.80;23.48;;;3.30;99.90;;;;;;6265945;28;20044;-78
2023/04/21 00:38:49;;;;;;;33.05;20.10;;;3.40;99.90;;;;;;6265871;28;20072;-78
2023/04/21 00:41:51;;;;;;;35.13;19.73;;;3.40;99.90;;;;;;6266575;28;20083;-78
2023/04/21 00:44:54;;;;;;;34.03;20.85;;;3.40;99.90;;;;;;6265344;28;20364;-78
2023/04/21 00:47:55;;;;;;;41.58;25.90;;;3.30;99.90;;;;;;6265019;28;20048;-77
2023/04/21 00:50:57;;;;;;;37.10;22.58;;;3.30;99.90;;;;;;6266829;28;20528;-80
2023/04/21 00:54:00;;;;;;;36.35;24.65;;;3.40;99.90;;;;;;6265418;28;20061;-78
2023/04/21 00:57:02;;;;;;;32.53;22.25;;;3.40;99.90;;;;;;6265937;28;20049;-79
2023/04/21 01:00:08;;;;;;;35.30;22.13;;;3.40;99.90;;;;;;6266418;28;20194;-78
2023/04/21 01:03:10;;;;;;;28.77;21.02;;;3.30;99.90;;;;;;6264823;28;20053;-79
2023/04/21 01:06:12;;;;;;;37.03;22.48;;;3.30;99.90;;;;;;6266551;28;20048;-77
2023/04/21 01:09:13;;;;;;;33.25;20.30;;;3.30;99.90;;;;;;6265929;28;20036;-78
2023/04/21 01:12:15;;;;;;;32.47;20.58;;;3.30;99.90;;;;;;6265656;28;20041;-79
2023/04/21 01:15:18;;;;;;;32.75;22.05;;;3.20;99.90;;;;;;6265266;28;20075;-78
2023/04/21 01:18:20;;;;;;;31.42;20.13;;;3.10;99.90;;;;;;6263882;28;20140;-77
2023/04/21 01:21:22;;;;;;;31.50;18.48;;;3.10;99.90;;;;;;6265562;28;20383;-77
2023/04/21 01:24:36;;;;;;;36.33;21.75;;;3.00;99.90;;;;;;6264959;28;20044;-77
2023/04/21 01:27:37;;;;;;;29.75;19.55;;;3.00;99.90;;;;;;6265441;28;20060;-78
2023/04/21 01:30:39;;;;;;;29.23;17.83;;;2.90;99.90;;;;;;6264506;28;20408;-78
2023/04/21 01:33:41;;;;;;;36.78;20.80;;;2.90;99.90;;;;;;6264581;28;20055;-78
2023/04/21 01:36:43;;;;;;;34.20;20.65;;;2.90;99.90;;;;;;6263971;28;20037;-78
2023/04/21 01:39:50;;;;;;;34.65;23.33;;;2.80;99.90;;;;;;6264801;28;20403;-78
2023/04/21 01:42:52;;;;;;;;;;;2.80;99.90;;;;;;6263687;28;20057;-79
2023/04/21 01:45:54;;;;;;;38.60;22.02;;;2.70;99.90;;;;;;6264961;28;19940;-77
2023/04/21 01:48:55;;;;;;;36.72;23.27;;;2.70;99.90;;;;;;6264791;28;20049;-78
2023/04/21 01:51:57;;;;;;;35.53;24.48;;;2.60;99.90;;;;;;6263639;28;20049;-78
2023/04/21 01:55:01;;;;;;;40.13;23.15;;;2.60;99.90;;;;;;6264219;28;20495;-78
2023/04/21 01:58:03;;;;;;;36.95;22.80;;;2.50;99.90;;;;;;6265902;28;20127;-78
2023/04/21 02:01:04;;;;;;;36.92;22.30;;;2.50;99.90;;;;;;6264581;28;20049;-78
2023/04/21 02:04:06;;;;;;;37.88;22.40;;;2.50;99.90;;;;;;6262536;28;20411;-78
2023/04/21 02:07:08;;;;;;;36.45;22.77;;;2.40;99.90;;;;;;6264433;28;20408;-78
2023/04/21 02:10:12;;;;;;;39.60;22.50;;;2.40;99.90;;;;;;6264231;28;20056;-78
2023/04/21 02:13:14;;;;;;;38.65;24.23;;;2.30;99.90;;;;;;6263818;28;20045;-78
2023/04/21 02:16:15;;;;;;;38.35;22.23;;;2.30;99.90;;;;;;6264885;28;20049;-78
2023/04/21 02:19:17;;;;;;;37.10;22.02;;;2.30;99.90;;;;;;6265629;28;20056;-79
2023/04/21 02:22:19;;;;;;;32.75;21.13;;;2.20;99.90;;;;;;6264605;28;20045;-77
2023/04/21 02:25:22;;;;;;;39.30;24.55;;;2.20;99.90;;;;;;6264941;28;20056;-78
2023/04/21 02:28:23;;;;;;;35.08;22.95;;;2.20;99.90;;;;;;6264200;28;20041;-78
2023/04/21 02:31:25;;;;;;;40.00;24.40;;;2.10;99.90;;;;;;6269484;28;20056;-78
2023/04/21 02:34:27;;;;;;;41.10;23.38;;;2.20;99.90;;;;;;6269449;28;20065;-77
2023/04/21 02:37:29;;;;;;;40.30;25.02;;;2.10;99.90;;;;;;6269875;28;20041;-76
2023/04/21 02:40:32;;;;;;;40.75;24.23;;;2.10;99.90;;;;;;6268566;28;20411;-78
2023/04/21 02:43:33;;;;;;;38.97;23.92;;;2.10;99.90;;;;;;6268782;28;20056;-78
2023/04/21 02:46:35;;;;;;;42.83;22.05;;;2.20;99.90;;;;;;6267467;28;20049;-78
2023/04/21 02:49:41;;;;;;;42.17;23.20;;;2.20;99.90;;;;;;6269563;28;20052;-78
2023/04/21 02:52:42;;;;;;;36.17;24.27;;;2.20;99.90;;;;;;6269143;28;20060;-78
2023/04/21 02:55:45;;;;;;;46.15;22.58;;;2.20;99.90;;;;;;6266064;28;20516;-77
2023/04/21 02:58:47;;;;;;;39.30;22.10;;;2.10;99.90;;;;;;6266480;28;20433;-78
2023/04/21 03:01:48;;;;;;;34.70;21.33;;;2.00;99.90;;;;;;6267760;28;20067;-79
2023/04/21 03:04:50;;;;;;;28.60;19.98;;;2.00;99.90;;;;;;6267312;28;20572;-78
2023/04/21 03:07:52;;;;;;;31.45;19.30;;;1.90;99.90;;;;;;6268550;28;20048;-77
2023/04/21 03:10:55;;;;;;;33.63;18.70;;;1.80;99.90;;;;;;6268599;28;20128;-77
2023/04/21 03:13:57;;;;;;;34.25;21.23;;;1.80;99.90;;;;;;6267663;28;20045;-78
2023/04/21 03:16:58;;;;;;;31.08;20.25;;;1.70;99.90;;;;;;6267919;28;20049;-78
2023/04/21 03:20:03;;;;;;;36.90;19.60;;;1.70;99.90;;;;;;6266477;28;20057;-78
2023/04/21 03:23:05;;;;;;;31.77;19.77;;;1.70;99.90;;;;;;6267743;28;20084;-77
2023/04/21 03:26:08;;;;;;;40.05;24.20;;;1.60;99.90;;;;;;6267416;28;20037;-77
2023/04/21 03:29:10;;;;;;;43.08;21.52;;;1.50;99.90;;;;;;6266755;28;20063;-78
2023/04/21 03:32:12;;;;;;;32.88;19.70;;;1.50;99.90;;;;;;6267472;28;20136;-77
2023/04/21 03:35:14;;;;;;;31.98;21.80;;;1.50;99.90;;;;;;6265018;28;20044;-76
2023/04/21 03:38:15;;;;;;;41.47;23.15;;;1.50;99.90;;;;;;6266784;28;20045;-77
2023/04/21 03:41:19;;;;;;;34.07;21.90;;;1.50;99.90;;;;;;6265912;28;20051;-77
2023/04/21 03:44:20;;;;;;;38.13;22.83;;;1.50;99.90;;;;;;6265746;28;20045;-77
2023/04/21 03:47:22;;;;;;;35.80;22.07;;;1.40;99.90;;;;;;6266452;28;20419;-77
2023/04/21 03:50:24;;;;;;;37.60;20.53;;;1.40;99.90;;;;;;6267626;28;20060;-76
2023/04/21 03:53:25;;;;;;;30.07;20.97;;;1.40;99.90;;;;;;6266469;28;20104;-79
2023/04/21 03:56:28;;;;;;;38.37;20.67;;;1.30;99.90;;;;;;6269394;28;20049;-81
2023/04/21 03:59:30;;;;;;;35.50;19.37;;;1.40;99.90;;;;;;6267492;28;20052;-79
2023/04/21 04:02:32;;;;;;;33.90;19.57;;;1.30;99.90;;;;;;6269524;28;20045;-79
2023/04/21 04:05:35;;;;;;;36.77;21.97;;;1.20;99.90;;;;;;6267895;28;20049;-82
2023/04/21 04:08:37;;;;;;;38.13;22.73;;;1.30;99.90;;;;;;6267601;28;20041;-78
2023/04/21 04:11:40;;;;;;;33.65;20.75;;;1.30;99.90;;;;;;6268896;28;20048;-79
2023/04/21 04:14:41;;;;;;;38.47;22.40;;;1.30;99.90;;;;;;6268628;28;20053;-79
2023/04/21 04:17:43;;;;;;;44.03;22.80;;;1.30;99.90;;;;;;6268865;28;20052;-82
2023/04/21 04:20:45;;;;;;;37.97;23.07;;;1.30;99.90;;;;;;6268755;28;20068;-81
2023/04/21 04:23:46;;;;;;;45.47;26.80;;;1.30;99.90;;;;;;6266942;28;20403;-78
2023/04/21 04:26:50;;;;;;;44.63;28.23;;;1.20;99.90;;;;;;6268759;28;20060;-82
2023/04/21 04:29:51;;;;;;;41.60;25.17;;;1.40;99.90;;;;;;6270242;28;20499;-80
2023/04/21 04:32:53;;;;;;;46.88;26.13;;;1.50;99.90;;;;;;6270457;28;20076;-79
2023/04/21 04:35:57;;;;;;;47.22;26.83;;;1.40;99.90;;;;;;6269380;28;20151;-79
2023/04/21 04:38:58;;;;;;;44.33;25.17;;;1.40;99.90;;;;;;6268634;28;20628;-79
2023/04/21 04:42:02;;;;;;;41.40;23.67;;;1.40;99.90;;;;;;6270996;28;20055;-81
2023/04/21 04:45:05;;;;;;;39.77;21.63;;;1.40;99.90;;;;;;6268355;28;20048;-79
2023/04/21 04:48:07;;;;;;;34.43;21.60;;;1.40;99.90;;;;;;6267134;28;20044;-80
2023/04/21 04:51:09;;;;;;;43.50;23.83;;;1.30;99.90;;;;;;6268823;28;20519;-79
2023/04/21 04:54:11;;;;;;;43.17;25.00;;;1.30;99.90;;;;;;6268168;28;20056;-79
2023/04/21 04:57:14;;;;;;;37.67;21.60;;;1.30;99.90;;;;;;6268591;28;20063;-79
2023/04/21 05:00:16;;;;;;;49.43;24.00;;;1.30;99.90;;;;;;6267040;28;20439;-80
2023/04/21 05:03:18;;;;;;;43.50;24.80;;;1.30;99.90;;;;;;6268619;28;20055;-79
2023/04/21 05:06:19;;;;;;;43.60;25.17;;;1.40;99.90;;;;;;6268800;28;20048;-83
2023/04/21 05:09:21;;;;;;;40.73;24.27;;;1.40;99.90;;;;;;6282696;28;20041;-81
2023/04/21 05:12:24;;;;;;;44.40;23.77;;;1.40;99.90;;;;;;6281348;28;20052;-81
2023/04/21 05:15:36;;;;;;;43.93;25.27;;;1.50;99.90;;;;;;6272467;28;20045;-79
2023/04/21 05:18:37;;;;;;;47.47;25.80;;;1.40;99.90;;;;;;6270619;28;20071;-80
2023/04/21 05:21:39;;;;;;;44.53;23.98;;;1.50;99.90;;;;;;6270301;28;20130;-80
2023/04/21 05:24:41;;;;;;;43.63;24.67;;;1.60;99.90;;;;;;6271492;28;20045;-79
2023/04/21 05:27:44;;;;;;;49.83;25.25;;;1.60;99.90;;;;;;6270732;28;20041;-81
2023/04/21 05:30:46;;;;;;;46.67;27.23;;;1.70;99.90;;;;;;6274257;28;20056;-80
2023/04/21 05:33:48;;;;;;;45.78;27.25;;;1.80;99.90;;;;;;6269945;28;20415;-80
2023/04/21 05:36:51;;;;;;;42.10;26.83;;;1.90;99.90;;;;;;6272711;28;20045;-78
2023/04/21 05:39:52;;;;;;;47.08;25.08;;;1.90;99.90;;;;;;6274914;28;20052;-79
2023/04/21 05:42:55;;;;;;;42.97;23.95;;;1.90;99.90;;;;;;6266789;28;20049;-81
2023/04/21 05:45:57;;;;;;;41.40;24.10;;;1.90;99.90;;;;;;6268199;28;20599;-83
2023/04/21 05:49:01;;;;;;;34.72;22.10;;;1.90;99.90;;;;;;6268088;28;20116;-79
2023/04/21 05:52:02;;;;;;;35.97;22.42;;;1.90;99.90;;;;;;6269166;28;20114;-79
2023/04/21 05:55:05;;;;;;;40.95;24.48;;;1.90;99.90;;;;;;6268719;28;20422;-81
2023/04/21 05:58:08;;;;;;;40.00;24.95;;;2.00;99.90;;;;;;6270081;28;20048;-80
2023/04/21 06:01:10;;;;;;;40.15;25.30;;;2.10;99.90;;;;;;6269106;28;20048;-79
2023/04/21 06:04:11;;;;;;;48.72;25.08;;;2.10;99.90;;;;;;6266285;28;20053;-80
2023/04/21 06:07:13;;;;;;;31.05;21.77;;;2.20;99.90;;;;;;6266515;28;20049;-79
2023/04/21 06:10:15;;;;;;;34.22;22.10;;;2.10;99.90;;;;;;6267783;28;20053;-79
2023/04/21 06:13:18;;;;;;;32.72;19.75;;;2.10;99.90;;;;;;6270109;28;20503;-78
2023/04/21 06:16:19;;;;;;;37.22;22.88;;;2.20;99.90;;;;;;6268733;28;20063;-77
2023/04/21 06:19:21;;;;;;;53.92;26.67;;;2.20;99.90;;;;;;6270600;28;20487;-78
2023/04/21 06:22:23;;;;;;;34.72;23.73;;;2.30;99.90;;;;;;6271327;28;20215;-78
2023/04/21 06:25:33;;;;;;;36.95;25.30;;;2.40;99.90;;;;;;6261408;28;20056;-79
2023/04/21 06:28:45;;;;;;;26.83;19.88;;;3.10;99.90;;;;;;6260824;28;20081;-78
2023/04/21 06:31:47;;;;;;;26.77;21.25;;;4.50;99.90;;;;;;6260519;28;20069;-80
2023/04/21 06:34:48;;;;;;;22.63;16.60;;;5.80;99.90;;;;;;6262330;28;20051;-80
2023/04/21 06:37:50;;;;;;;24.23;17.23;;;7.00;99.90;;;;;;6259673;28;20060;-79
2023/04/21 06:40:52;;;;;;;19.88;17.80;;;8.20;99.90;;;;;;6261821;28;20041;-79
2023/04/21 06:43:55;;;;;;;18.63;15.30;;;9.40;99.90;;;;;;6261575;28;20057;-79
2023/04/21 06:46:57;;;;;;;14.15;12.70;;;10.50;99.90;;;;;;6260221;28;20053;-79
2023/04/21 06:49:58;;;;;;;12.27;11.07;;;11.70;99.90;;;;;;6259601;28;20041;-80
2023/04/21 06:53:00;;;;;;;11.00;9.95;;;12.60;99.90;;;;;;6261964;28;20041;-80
2023/04/21 06:56:02;;;;;;;12.43;11.15;;;13.40;99.90;;;;;;6260799;28;20045;-78
2023/04/21 06:59:05;;;;;;;10.75;9.65;;;14.10;99.90;;;;;;6259149;28;20054;-79
2023/04/21 07:02:06;;;;;;;11.55;10.35;;;14.60;99.90;;;;;;6261553;28;20068;-78
2023/04/21 07:05:08;;;;;;;11.18;10.05;;;15.10;99.90;;;;;;6257020;28;20041;-80
2023/04/21 07:08:10;;;;;;;11.68;10.65;;;15.50;99.90;;;;;;6255316;28;20067;-79
2023/04/21 07:11:12;;;;;;;9.63;8.73;;;15.70;99.90;;;;;;6258218;28;20116;-80
2023/04/21 07:14:15;;;;;;;9.68;8.77;;;16.00;99.90;;;;;;6254687;28;20042;-79
2023/04/21 07:17:16;;;;;;;15.48;9.23;;;16.10;99.90;;;;;;6258017;28;20045;-80
2023/04/21 07:20:18;;;;;;;8.13;7.18;;;16.30;99.90;;;;;;6260911;28;20636;-80
2023/04/21 07:23:20;;;;;;;8.63;7.93;;;16.50;99.90;;;;;;6258179;28;20049;-79
2023/04/21 07:26:22;;;;;;;9.50;8.60;;;16.50;99.90;;;;;;6262571;28;20061;-80
2023/04/21 07:29:25;;;;;;;8.90;8.00;;;16.50;99.90;;;;;;6262450;28;20053;-80
2023/04/21 07:32:27;;;;;;;9.45;8.52;;;16.30;99.90;;;;;;6259399;28;20037;-79
2023/04/21 07:35:29;;;;;;;6.55;5.88;;;16.30;99.90;;;;;;6263459;28;20055;-80
2023/04/21 07:38:31;;;;;;;8.32;7.45;;;16.40;99.90;;;;;;6264687;28;20056;-80
2023/04/21 07:41:34;;;;;;;8.27;7.50;;;16.60;99.80;;;;;;6260899;28;20056;-81
2023/04/21 07:44:37;;;;;;;9.13;8.35;;;16.90;99.50;;;;;;6260913;28;20057;-81
2023/04/21 07:47:39;;;;;;;9.23;8.18;;;17.40;98.70;;;;;;6261010;28;20431;-80
2023/04/21 07:50:41;;;;;;;9.95;8.93;;;17.70;97.90;;;;;;6258012;28;20044;-81
2023/04/21 07:53:44;;;;;;;9.60;8.10;;;18.10;97.20;;;;;;6259201;28;20106;-82
2023/04/21 07:56:46;;;;;;;9.88;9.00;;;18.70;96.30;;;;;;6265042;28;20048;-81
2023/04/21 07:59:50;;;;;;;15.23;12.75;;;19.10;95.10;;;;;;6261710;28;20519;-82
2023/04/21 08:02:51;;;;;;;13.32;10.55;;;19.60;93.60;;;;;;6268782;28;20124;-81
2023/04/21 08:05:53;;;;;;;14.07;10.18;;;20.20;92.60;;;;;;6270586;28;20068;-81
2023/04/21 08:08:55;;;;;;;9.25;8.38;;;20.50;91.50;;;;;;6265097;28;20530;-81
2023/04/21 08:11:57;;;;;;;4.70;4.35;;;21.20;90.20;;;;;;6267676;28;20041;-84
2023/04/21 08:15:04;;;;;;;4.03;3.63;;;21.70;86.80;;;;;;6267449;28;20063;-81
2023/04/21 08:18:06;;;;;;;3.85;3.47;;;21.90;80.80;;;;;;6268929;28;20049;-81
2023/04/21 08:21:08;;;;;;;3.33;2.95;;;21.70;78.90;;;;;;6265369;28;20049;-81
2023/04/21 08:24:10;;;;;;;3.80;3.20;;;21.40;76.90;;;;;;6261008;28;20044;-81
2023/04/21 08:27:12;;;;;;;4.32;3.53;;;21.40;75.10;;;;;;6260541;28;20041;-82
2023/04/21 08:30:15;;;;;;;4.72;2.90;;;21.20;73.40;;;;;;6263513;28;20049;-81
2023/04/21 08:33:17;;;;;;;5.03;4.22;;;20.60;72.40;;;;;;6261127;28;20055;-82
2023/04/21 08:36:19;;;;;;;5.15;4.65;;;20.30;72.80;;;;;;6270427;28;20149;-85
2023/04/21 08:39:21;;;;;;;4.45;3.28;;;20.00;72.60;;;;;;6271165;28;20458;-84
2023/04/21 08:42:23;;;;;;;6.88;4.22;;;20.10;72.60;;;;;;6267014;28;20140;-84
2023/04/21 08:45:27;;;;;;;7.70;3.88;;;19.90;72.60;;;;;;6265123;28;20044;-82
2023/04/21 08:48:31;;;;;;;4.32;3.92;;;19.90;72.20;;;;;;6264224;28;20045;-83
2023/04/21 08:51:33;;;;;;;9.95;4.00;;;20.00;72.30;;;;;;6264354;28;20051;-81
2023/04/21 08:54:36;;;;;;;4.07;3.53;;;20.20;72.00;;;;;;6266202;28;20512;-82
2023/04/21 08:57:37;;;;;;;4.05;3.70;;;20.30;71.20;;;;;;6265600;28;20049;-82
2023/04/21 09:00:41;;;;;;;5.22;4.72;;;20.10;71.70;;;;;;6272442;28;20051;-82
2023/04/21 09:03:42;;;;;;;4.72;4.25;;;20.00;71.30;;;;;;6264593;28;20049;-81
2023/04/21 09:06:45;;;;;;;4.80;4.38;;;20.10;71.20;;;;;;6259819;28;20057;-81
2023/04/21 09:09:53;;;;;;;4.55;3.88;;;20.40;71.10;;;;;;6257688;28;20423;-81
2023/04/21 09:12:55;;;;;;;3.83;3.42;;;20.30;70.60;;;;;;6261681;28;20037;-81
2023/04/21 09:15:58;;;;;;;5.28;3.38;;;20.60;70.80;;;;;;6258775;28;20049;-81
2023/04/21 09:19:00;;;;;;;4.30;3.72;;;20.80;69.80;;;;;;6262450;28;20053;-81
2023/04/21 09:22:02;;;;;;;3.80;3.40;;;20.90;69.40;;;;;;6260621;28;20049;-81
2023/04/21 09:25:04;;;;;;;6.63;4.35;;;20.90;69.20;;;;;;6258463;28;20049;-81
2023/04/21 09:28:08;;;;;;;7.38;3.55;;;21.20;69.20;;;;;;6259470;28;20048;-81
2023/04/21 09:31:18;;;;;;;4.15;3.75;;;21.10;68.70;;;;;;6257529;28;20071;-81
2023/04/21 09:34:23;;;;;;;5.15;4.57;;;21.30;68.60;;;;;;6259696;28;20049;-81
2023/04/21 09:37:25;;;;;;;4.32;3.92;;;21.30;67.70;;;;;;6257748;28;20049;-81
2023/04/21 09:40:28;;;;;;;4.50;3.75;;;21.20;68.20;;;;;;6254909;28;20042;-81
2023/04/21 09:43:29;;;;;;;4.50;3.95;;;21.10;68.80;;;;;;6260084;28;20068;-81
2023/04/21 09:46:34;;;;;;;4.72;4.22;;;21.30;68.40;;;;;;6258103;28;20052;-81
2023/04/21 09:49:39;;;;;;;4.55;4.10;;;21.30;68.40;;;;;;6256657;28;20159;-82
2023/04/21 09:52:43;;;;;;;4.38;3.97;;;21.20;67.80;;;;;;6260223;28;20041;-81
2023/04/21 09:55:49;;;;;;;3.97;3.58;;;20.50;68.10;;;;;;6256819;28;20049;-81
2023/04/21 09:58:53;;;;;;;4.22;3.13;;;20.30;68.80;;;;;;6258919;28;20192;-81
2023/04/21 10:01:59;;;;;;;5.18;3.50;;;20.10;68.70;;;;;;6255815;28;20049;-80
2023/04/21 10:05:01;;;;;;;5.28;3.35;;;19.70;69.20;;;;;;6253611;28;20099;-81
2023/04/21 10:08:05;;;;;;;5.78;4.55;;;19.60;70.30;;;;;;6258873;28;20041;-80
2023/04/21 10:11:08;;;;;;;3.83;3.53;;;19.60;70.40;;;;;;6255900;28;20057;-80
2023/04/21 10:14:10;;;;;;;3.25;2.95;;;19.80;70.40;;;;;;6256678;28;20555;-81
2023/04/21 10:17:14;;;;;;;3.75;3.33;;;20.10;70.80;;;;;;6256555;28;20053;-81
2023/04/21 10:20:17;;;;;;;3.30;2.97;;;20.40;70.20;;;;;;6257028;28;20080;-81
2023/04/21 10:23:30;;;;;;;2.53;2.33;;;20.60;69.50;;;;;;6254971;28;20049;-81
2023/04/21 10:26:35;;;;;;;2.63;2.33;;;20.70;68.90;;;;;;6255278;28;20492;-80
2023/04/21 10:29:37;;;;;;;3.95;2.72;;;20.50;68.60;;;;;;6256195;28;20348;-81
2023/04/21 10:32:44;;;;;;;3.33;2.47;;;20.40;68.50;;;;;;6260088;28;20053;-81
2023/04/21 10:35:59;;;;;;;2.58;2.03;;;20.20;68.70;;;;;;6260999;28;20415;-80
2023/04/21 10:39:02;;;;;;;1.42;1.33;;;20.20;69.30;;;;;;6263738;28;20087;-81
2023/04/21 10:42:21;;;;;;;2.70;2.30;;;20.20;68.90;;;;;;6262331;28;20184;-80
2023/04/21 10:45:25;;;;;;;2.03;1.83;;;20.40;68.80;;;;;;6260828;28;20053;-81
2023/04/21 10:48:28;;;;;;;1.75;1.65;;;20.30;69.00;;;;;;6258480;28;20053;-81
2023/04/21 10:51:31;;;;;;;2.70;1.42;;;20.30;69.20;;;;;;6268410;28;20045;-81
2023/04/21 10:54:44;;;;;;;2.38;2.17;;;20.60;68.60;;;;;;6266689;28;20221;-81
2023/04/21 10:57:46;;;;;;;1.40;1.30;;;20.70;68.60;;;;;;6258675;28;20052;-81
2023/04/21 11:00:54;;;;;;;1.60;1.50;;;20.90;67.80;;;;;;6262111;28;20045;-81
2023/04/21 11:03:58;;;;;;;2.50;1.60;;;20.90;68.30;;;;;;6266438;28;20045;-81
2023/04/21 11:07:07;;;;;;;3.15;1.77;;;21.00;67.50;;;;;;6269135;28;20045;-81
2023/04/21 11:10:10;;;;;;;1.65;1.20;;;21.40;68.50;;;;;;6261698;28;20447;-82
2023/04/21 11:13:12;;;;;;;2.40;2.20;;;21.80;67.90;;;;;;6263231;28;20584;-84
2023/04/21 11:16:14;;;;;;;2.35;1.35;;;22.10;67.40;;;;;;6261266;28;20053;-80
2023/04/21 11:19:19;;;;;;;2.95;2.05;;;22.30;65.80;;;;;;6261297;28;20037;-80
2023/04/21 11:22:22;;;;;;;3.65;2.10;;;22.00;65.50;;;;;;6261009;28;20064;-80
2023/04/21 11:25:24;;;;;;;2.22;2.03;;;22.00;65.40;;;;;;6259813;28;20057;-81
2023/04/21 11:28:26;;;;;;;1.70;1.55;;;21.90;65.30;;;;;;6255701;28;20393;-81
2023/04/21 11:31:28;;;;;;;2.78;1.45;;;21.60;64.50;;;;;;6263743;28;20060;-80
2023/04/21 11:34:32;;;;;;;2.22;2.03;;;21.20;65.40;;;;;;6261908;28;20484;-80
2023/04/21 11:37:33;;;;;;;4.75;2.35;;;21.30;65.60;;;;;;6262154;28;20050;-81
2023/04/21 11:40:45;;;;;;;2.88;2.00;;;21.20;65.70;;;;;;6264486;28;20041;-81
2023/04/21 11:43:47;;;;;;;2.63;2.08;;;21.10;65.50;;;;;;6260460;28;20056;-79
2023/04/21 11:46:49;;;;;;;1.63;1.52;;;21.20;65.90;;;;;;6263497;28;20071;-80
2023/04/21 11:49:55;;;;;;;3.13;2.65;;;21.30;66.60;;;;;;6259084;28;20048;-81
2023/04/21 11:52:56;;;;;;;6.53;3.70;;;21.60;65.50;;;;;;6257125;28;20041;-80
2023/04/21 11:55:58;;;;;;;5.80;3.45;;;21.50;65.50;;;;;;6259238;28;20045;-81
2023/04/21 11:59:00;;;;;;;4.55;4.15;;;21.60;66.30;;;;;;6264921;28;20052;-81
2023/04/21 12:02:01;;;;;;;5.43;3.13;;;21.80;65.60;;;;;;6259143;28;20057;-81
2023/04/21 12:05:06;;;;;;;5.57;3.42;;;21.90;65.50;;;;;;6259267;28;20045;-79
2023/04/21 12:08:14;;;;;;;4.95;3.00;;;22.10;65.70;;;;;;6257428;28;20037;-79
2023/04/21 12:11:16;;;;;;;4.68;2.60;;;22.10;65.30;;;;;;6257607;28;20045;-80
2023/04/21 12:14:19;;;;;;;5.05;3.10;;;21.90;64.70;;;;;;6258378;28;20052;-82
2023/04/21 12:17:21;;;;;;;3.25;2.95;;;21.80;65.00;;;;;;6258886;28;20053;-81
2023/04/21 12:20:26;;;;;;;3.05;2.75;;;21.90;66.00;;;;;;6263779;28;20063;-80
2023/04/21 12:23:28;;;;;;;3.70;3.40;;;22.20;65.50;;;;;;6259481;28;20048;-81
2023/04/21 12:26:29;;;;;;;3.05;2.83;;;22.50;65.30;;;;;;6258649;28;20572;-81
2023/04/21 12:29:33;;;;;;;4.57;3.30;;;22.60;65.10;;;;;;6260131;28;20523;-81
2023/04/21 12:32:35;;;;;;;3.15;2.90;;;22.80;65.00;;;;;;6261578;28;20046;-81
2023/04/21 12:35:38;;;;;;;4.90;2.92;;;22.90;63.80;;;;;;6257389;28;20042;-80
2023/04/21 12:38:40;;;;;;;4.53;3.00;;;22.60;63.00;;;;;;6258476;28;20064;-80
2023/04/21 12:41:41;;;;;;;3.35;2.97;;;22.40;63.50;;;;;;6259224;28;20064;-79
2023/04/21 12:44:43;;;;;;;4.88;3.45;;;22.40;63.90;;;;;;6256764;28;20060;-81
2023/04/21 12:47:45;;;;;;;3.42;3.13;;;22.40;63.50;;;;;;6253829;28;20056;-80
2023/04/21 12:50:48;;;;;;;3.88;3.45;;;22.30;63.80;;;;;;6256562;28;20041;-80
2023/04/21 12:53:50;;;;;;;4.07;3.67;;;22.20;63.60;;;;;;6257050;28;20054;-80
2023/04/21 12:56:51;;;;;;;6.05;4.43;;;22.00;63.80;;;;;;6259352;28;20045;-80
2023/04/21 12:59:53;;;;;;;5.68;5.05;;;22.00;64.00;;;;;;6256698;28;20053;-79
2023/04/21 13:02:55;;;;;;;7.00;5.22;;;22.00;63.90;;;;;;6258968;28;20059;-80
2023/04/21 13:05:58;;;;;;;4.72;4.32;;;21.90;64.90;;;;;;6262442;28;20053;-79
2023/04/21 13:09:00;;;;;;;6.95;4.47;;;22.00;65.00;;;;;;6262045;28;20041;-80
2023/04/21 13:12:02;;;;;;;4.50;4.10;;;22.10;65.00;;;;;;6258394;28;20048;-81
2023/04/21 13:15:05;;;;;;;4.93;4.40;;;22.00;65.50;;;;;;6259593;28;20059;-80
2023/04/21 13:18:06;;;;;;;5.10;4.47;;;22.00;65.50;;;;;;6261108;28;20052;-79
2023/04/21 13:21:09;;;;;;;4.85;4.25;;;22.20;65.70;;;;;;6249400;28;20040;-79
2023/04/21 13:24:12;;;;;;;5.18;4.63;;;22.30;65.20;;;;;;6250326;28;20667;-80
2023/04/21 13:27:13;;;;;;;5.95;5.35;;;22.30;65.70;;;;;;6252650;28;20499;-78
2023/04/21 13:30:16;;;;;;;5.10;4.40;;;22.30;65.30;;;;;;6250439;28;20061;-79
2023/04/21 13:33:18;;;;;;;5.32;4.28;;;22.30;65.90;;;;;;6252534;28;20059;-79
2023/04/21 13:36:21;;;;;;;5.68;5.00;;;22.30;65.90;;;;;;6251922;28;20136;-80
2023/04/21 13:39:22;;;;;;;6.93;5.43;;;22.40;65.60;;;;;;6252034;28;20045;-78
2023/04/21 13:42:24;;;;;;;6.70;6.05;;;22.40;66.30;;;;;;6248523;28;20052;-78
2023/04/21 13:45:26;;;;;;;6.00;5.28;;;22.60;65.60;;;;;;6251632;28;20519;-78
2023/04/21 13:48:28;;;;;;;5.80;5.10;;;22.40;65.20;;;;;;6249449;28;20053;-79
2023/04/21 13:51:31;;;;;;;4.93;3.90;;;22.40;65.90;;;;;;6249010;28;20091;-79
2023/04/21 13:54:33;;;;;;;6.32;5.55;;;22.50;66.00;;;;;;6253093;28;20080;-78
2023/04/21 13:57:35;;;;;;;8.68;4.28;;;22.50;66.10;;;;;;6249003;28;20052;-79
2023/04/21 14:00:36;;;;;;;5.05;4.60;;;22.50;65.80;;;;;;6249808;28;20049;-78
2023/04/21 14:03:38;;;;;;;4.57;4.15;;;22.50;65.30;;;;;;6248719;28;20064;-78
2023/04/21 14:06:41;;;;;;;4.93;4.43;;;22.10;66.10;;;;;;6250845;28;20049;-80
2023/04/21 14:09:43;;;;;;;6.47;5.53;;;21.90;66.50;;;;;;6249155;28;20439;-79
2023/04/21 14:12:46;;;;;;;6.70;4.53;;;21.70;67.00;;;;;;6248628;28;20699;-80
2023/04/21 14:15:48;;;;;;;4.72;3.75;;;21.60;67.50;;;;;;6250490;28;20053;-79
2023/04/21 14:18:51;;;;;;;6.03;5.18;;;21.80;67.90;;;;;;6249759;28;20052;-79
2023/04/21 14:21:54;;;;;;;4.85;4.35;;;21.90;67.40;;;;;;6251138;28;20049;-79
2023/04/21 14:24:56;;;;;;;5.45;4.85;;;22.10;67.30;;;;;;6252236;28;20052;-79
2023/04/21 14:27:58;;;;;;;3.63;3.33;;;22.40;67.10;;;;;;6256739;28;20052;-80
2023/04/21 14:31:00;;;;;;;5.13;4.65;;;22.30;67.20;;;;;;6254760;28;20508;-79
2023/04/21 14:34:02;;;;;;;4.43;3.67;;;22.00;66.80;;;;;;6256171;28;20118;-81
2023/04/21 14:37:05;;;;;;;5.97;5.47;;;21.70;67.50;;;;;;6262032;28;20052;-79
2023/04/21 14:40:09;;;;;;;4.88;3.70;;;21.50;68.10;;;;;;6262065;28;20511;-82
2023/04/21 14:43:10;;;;;;;7.30;4.30;;;21.20;68.40;;;;;;6269173;28;20052;-83
2023/04/21 14:46:12;;;;;;;4.65;4.25;;;20.90;69.20;;;;;;6268060;28;20041;-83
2023/04/21 14:49:14;;;;;;;4.88;4.13;;;20.60;70.20;;;;;;6271313;28;20124;-81
2023/04/21 14:52:17;;;;;;;5.57;4.05;;;20.30;71.60;;;;;;6269475;28;20056;-82
2023/04/21 14:55:19;;;;;;;6.45;5.60;;;20.20;72.10;;;;;;6264940;28;20083;-81
2023/04/21 14:58:21;;;;;;;6.03;5.38;;;19.90;75.00;;;;;;6263306;28;20072;-81
2023/04/21 15:01:23;;;;;;;18.58;16.80;;;19.40;79.40;;;;;;6269313;28;20456;-77
2023/04/21 15:04:25;;;;;;;7.03;6.32;;;18.70;84.80;;;;;;6260160;28;20055;-80
2023/04/21 15:07:28;;;;;;;16.60;8.30;;;18.20;89.60;;;;;;6259391;28;20048;-80
2023/04/21 15:10:31;;;;;;;9.45;8.48;;;17.80;91.70;;;;;;6264802;28;20044;-80
2023/04/21 15:13:33;;;;;;;7.03;6.30;;;17.50;93.90;;;;;;6265909;28;20174;-80
2023/04/21 15:16:34;;;;;;;7.80;5.18;;;17.00;95.40;;;;;;6263910;28;20060;-80
2023/04/21 15:19:36;;;;;;;6.70;4.30;;;16.40;97.10;;;;;;6263347;28;20060;-80
2023/04/21 15:22:40;;;;;;;8.30;7.13;;;16.00;97.30;;;;;;6264425;28;20526;-80
2023/04/21 15:25:42;;;;;;;4.60;1.73;;;15.50;98.30;;;;;;6261942;28;20586;-79
2023/04/21 15:28:44;;;;;;;5.32;1.58;;;15.00;98.40;;;;;;6260008;28;20110;-78
2023/04/21 15:31:46;;;;;;;1.23;1.13;;;14.40;98.60;;;;;;6260675;28;20063;-78
2023/04/21 15:34:47;;;;;;;2.20;1.77;;;13.50;98.50;;;;;;6262705;28;20056;-81
2023/04/21 15:37:50;;;;;;;3.50;1.60;;;12.80;99.90;;;;;;6260733;28;20504;-77
2023/04/21 15:40:52;;;;;;;4.38;3.97;;;12.40;99.90;;;;;;6258523;28;20057;-80
2023/04/21 15:43:54;;;;;;;2.83;1.40;;;12.30;99.90;;;;;;6260427;28;20045;-80
2023/04/21 15:46:56;;;;;;;0.30;0.30;;;12.20;99.90;;;;;;6259684;28;20045;-80